Time;durP1;ratioP1;P1;durP2;ratioP2;P2;SDS_P1;SDS_P2;PMS_P1;PMS_P2;Temp;Humidity;BMP_temperature;BMP_pressure;BME280_temperature;BME280_humidity;BME280_pressure;Samples;Min_cycle;Max_cycle;Signal;HPM_P1;HPM_P2
2024/03/14 00:01:38;;;;;;;5.47;4.77;;;;;;;12.54;90.39;98941.75;5092551;28;42703;-77
2024/03/14 00:04:05;;;;;;;6.80;5.03;;;;;;;12.50;89.95;98942.91;5059766;28;40883;-76
2024/03/14 00:06:33;;;;;;;6.10;5.23;;;;;;;12.47;90.03;98940.50;5076416;28;39933;-75
2024/03/14 00:09:00;;;;;;;7.07;5.10;;;;;;;12.42;90.32;98933.78;5093099;28;41822;-76
2024/03/14 00:11:29;;;;;;;5.93;5.20;;;;;;;12.35;90.76;98922.75;5076602;28;42976;-78
2024/03/14 00:13:57;;;;;;;7.23;5.97;;;;;;;12.31;90.84;98931.03;5059346;28;42417;-77
2024/03/14 00:16:26;;;;;;;7.87;5.90;;;;;;;12.14;91.76;98918.88;5061756;28;38815;-76
2024/03/14 00:18:54;;;;;;;6.67;5.63;;;;;;;12.20;92.51;98929.09;5080151;28;41825;-78
2024/03/14 00:21:22;;;;;;;7.50;6.13;;;;;;;12.12;92.58;98926.09;5079794;28;45022;-77
2024/03/14 00:23:49;;;;;;;9.33;6.27;;;;;;;12.05;92.45;98924.81;5079133;28;41279;-77
2024/03/14 00:26:17;;;;;;;6.40;5.60;;;;;;;11.95;92.46;98913.97;5079928;28;39928;-76
2024/03/14 00:28:45;;;;;;;7.07;5.47;;;;;;;11.95;92.37;98919.28;5080067;28;42991;-75
2024/03/14 00:31:13;;;;;;;7.03;5.97;;;;;;;11.88;92.65;98918.84;5097216;28;43656;-77
2024/03/14 00:33:41;;;;;;;7.17;5.33;;;;;;;11.83;93.14;98920.97;5079855;28;41569;-75
2024/03/14 00:36:14;;;;;;;7.63;5.60;;;;;;;11.78;93.77;98908.94;5097276;28;39987;-74
2024/03/14 00:38:42;;;;;;;9.23;6.10;;;;;;;11.55;93.17;98880.41;5096639;28;42595;-77
2024/03/14 00:41:14;;;;;;;8.77;6.40;;;;;;;11.66;93.80;98907.91;5080321;28;42851;-75
2024/03/14 00:43:41;;;;;;;9.77;5.93;;;;;;;11.61;94.34;98910.03;5080290;28;41305;-77
2024/03/14 00:46:09;;;;;;;8.37;6.17;;;;;;;11.57;94.46;98903.22;5097386;28;40651;-77
2024/03/14 00:48:38;;;;;;;6.57;5.57;;;;;;;11.52;94.11;98911.47;5080393;28;42704;-78
2024/03/14 00:51:07;;;;;;;6.73;5.00;;;;;;;11.47;94.04;98910.09;5080804;28;42853;-76
2024/03/14 00:53:36;;;;;;;7.60;5.60;;;;;;;11.42;93.85;98909.53;5077963;28;41267;-77
2024/03/14 00:56:03;;;;;;;6.03;4.97;;;;;;;11.36;93.33;98899.34;5096175;28;40925;-76
2024/03/14 00:58:32;;;;;;;6.13;4.60;;;;;;;11.35;92.66;98903.78;5079427;28;41682;-76
2024/03/14 01:01:00;;;;;;;5.13;4.20;;;;;;;11.31;92.64;98904.06;5062469;28;42205;-78
2024/03/14 01:03:28;;;;;;;5.23;4.20;;;;;;;11.26;92.70;98906.16;5095785;28;43211;-75
2024/03/14 01:05:57;;;;;;;6.50;4.47;;;;;;;11.21;92.27;98905.63;5062494;28;39222;-77
2024/03/14 07:51:45;;;;;;;14.83;10.63;;;;;;;12.18;100.00;98851.34;5166143;27;21030;-76
2024/03/14 07:54:14;;;;;;;12.57;9.23;;;;;;;13.37;100.00;98848.13;5114629;27;40261;-76
2024/03/14 07:56:43;;;;;;;13.00;9.93;;;;;;;14.46;100.00;98852.25;5115178;27;42951;-76
2024/03/14 07:59:11;;;;;;;12.40;9.40;;;;;;;15.07;99.24;98849.06;5114243;27;42297;-76
2024/03/14 08:01:38;;;;;;;12.77;9.60;;;;;;;15.57;94.53;98859.25;5096000;27;44051;-76
2024/03/14 08:04:12;;;;;;;12.43;9.77;;;;;;;15.89;91.53;98869.91;5096827;27;38871;-77
2024/03/14 08:06:43;;;;;;;11.17;9.37;;;;;;;16.13;89.30;98867.84;5099012;27;41759;-76
2024/03/14 08:09:12;;;;;;;10.00;8.07;;;;;;;16.44;86.29;98882.13;5111307;27;42805;-75
2024/03/14 08:11:40;;;;;;;12.07;9.27;;;;;;;16.70;84.78;98877.19;5130939;27;42234;-76
2024/03/14 08:14:08;;;;;;;11.17;9.83;;;;;;;16.93;83.09;98878.72;5130726;27;40209;-76
2024/03/14 08:16:35;;;;;;;10.20;8.80;;;;;;;17.18;80.07;98880.06;5130600;27;42747;-76
2024/03/14 08:19:09;;;;;;;9.87;8.87;;;;;;;17.64;78.76;98883.97;5113363;27;42932;-77
2024/03/14 08:21:36;;;;;;;9.93;8.23;;;;;;;18.22;76.55;98885.66;5097988;27;43785;-76
2024/03/14 08:24:11;;;;;;;9.60;8.60;;;;;;;19.00;72.68;98897.03;5113056;27;42124;-77
2024/03/14 08:26:39;;;;;;;10.13;7.93;;;;;;;20.03;68.38;98902.88;5112306;27;42716;-77
2024/03/14 08:29:07;;;;;;;8.80;7.90;;;;;;;21.17;64.20;98909.06;5129955;27;42819;-76
2024/03/14 08:31:35;;;;;;;8.93;7.23;;;;;;;21.99;59.36;98924.53;5113682;27;42293;-76
2024/03/14 08:34:05;;;;;;;7.60;6.70;;;;;;;22.16;58.18;98928.09;5114292;27;38879;-77
2024/03/14 08:36:33;;;;;;;7.93;7.13;;;;;;;22.34;55.90;98931.47;5097247;27;41637;-77
2024/03/14 08:39:01;;;;;;;7.83;6.10;;;;;;;22.28;54.62;98934.00;5113982;27;43097;-76
2024/03/14 08:41:28;;;;;;;7.20;6.50;;;;;;;22.71;53.31;98935.50;5130588;27;42313;-76
2024/03/14 08:43:56;;;;;;;6.93;6.30;;;;;;;23.23;52.49;98944.88;5113445;27;38819;-77
2024/03/14 08:46:26;;;;;;;7.00;6.30;;;;;;;23.68;50.29;98945.19;5130856;27;41764;-77
2024/03/14 08:48:54;;;;;;;7.10;6.40;;;;;;;24.17;48.63;98956.56;5113699;27;41939;-76
2024/03/14 08:51:23;;;;;;;6.77;6.10;;;;;;;24.56;46.88;98943.78;5112670;27;43474;-76
2024/03/14 08:54:08;;;;;;;6.13;5.53;;;;;;;25.35;46.39;98958.53;5114132;27;39725;-78
2024/03/14 08:56:36;;;;;;;6.53;5.93;;;;;;;25.88;44.16;98959.25;5133152;27;42075;-77
2024/03/14 08:59:07;;;;;;;6.13;5.53;;;;;;;25.81;44.78;98950.22;5096138;27;41728;-78
2024/03/14 09:01:35;;;;;;;6.03;5.43;;;;;;;25.36;44.41;98960.22;5090695;27;41349;-78
2024/03/14 09:04:03;;;;;;;5.80;5.20;;;;;;;24.65;45.07;98937.25;5115967;27;39889;-77
2024/03/14 09:06:31;;;;;;;5.60;5.10;;;;;;;24.56;46.00;98943.78;5098585;27;42737;-77
2024/03/14 09:09:00;;;;;;;5.70;5.10;;;;;;;24.68;46.27;98941.47;5115618;27;43100;-77
2024/03/14 09:11:29;;;;;;;5.03;4.53;;;;;;;25.19;45.05;98942.47;5098872;27;41597;-77
2024/03/14 09:13:56;;;;;;;6.43;5.10;;;;;;;25.83;44.25;98937.28;5099040;27;38869;-77
2024/03/14 09:16:26;;;;;;;5.45;4.95;;;;;;;26.57;42.48;98961.47;5098734;27;42665;-78
2024/03/14 09:18:55;;;;;;;4.72;4.30;;;;;;;26.87;41.31;98962.97;5115428;27;43132;-77
2024/03/14 09:21:27;;;;;;;5.70;4.60;;;;;;;27.07;41.06;98958.56;5096663;27;42451;-77
2024/03/14 09:23:55;;;;;;;4.88;4.47;;;;;;;27.38;41.33;98949.09;5094261;27;41823;-77
2024/03/14 09:26:23;;;;;;;5.13;3.97;;;;;;;27.50;40.91;98964.66;5094909;28;42038;-77
2024/03/14 09:28:51;;;;;;;5.00;4.60;;;;;;;27.70;39.72;98969.38;5078945;28;41935;-77
2024/03/14 09:31:19;;;;;;;4.97;4.47;;;;;;;27.96;37.95;98966.75;5086252;27;42857;-78
2024/03/14 09:33:47;;;;;;;5.10;4.60;;;;;;;28.07;38.28;98973.47;5109535;27;40641;-77
2024/03/14 09:36:14;;;;;;;6.18;4.90;;;;;;;28.12;38.61;98966.41;5089076;27;41377;-78
2024/03/14 09:38:42;;;;;;;4.70;4.20;;;;;;;27.95;37.56;98928.84;5116555;27;42820;-77
2024/03/14 09:41:16;;;;;;;4.43;4.03;;;;;;;27.51;38.29;98950.00;5089713;28;42176;-77
2024/03/14 09:43:44;;;;;;;3.97;3.58;;;;;;;27.19;39.08;98928.94;5076453;28;39995;-77
2024/03/14 09:46:12;;;;;;;4.43;4.03;;;;;;;27.45;38.26;98956.25;5088628;27;42826;-77
2024/03/14 09:48:40;;;;;;;3.50;3.20;;;;;;;27.49;38.63;98952.09;5099349;27;43879;-77
2024/03/14 09:51:09;;;;;;;3.85;3.55;;;;;;;27.58;37.91;98960.09;5094775;27;43123;-77
2024/03/14 09:53:43;;;;;;;4.32;3.90;;;;;;;27.96;38.17;98947.69;5081845;27;40616;-77
2024/03/14 09:56:11;;;;;;;4.28;3.50;;;;;;;28.29;37.27;98957.88;5098858;27;41548;-78
2024/03/14 09:58:39;;;;;;;3.80;3.50;;;;;;;28.27;35.94;98962.69;5110184;28;43088;-77
2024/03/14 10:01:09;;;;;;;3.65;3.35;;;;;;;28.11;36.61;98910.25;5080056;27;43136;-77
2024/03/14 10:03:38;;;;;;;4.57;3.75;;;;;;;27.76;36.22;98957.69;5098369;27;40668;-77
2024/03/14 10:06:15;;;;;;;4.75;3.70;;;;;;;27.39;36.74;98932.59;5073284;28;41945;-77
2024/03/14 10:08:46;;;;;;;4.03;3.43;;;;;;;27.28;38.28;98937.75;5078894;28;43991;-82
2024/03/14 10:11:14;;;;;;;4.43;3.40;;;;;;;26.70;37.42;98907.25;5062630;28;42057;-80
2024/03/14 10:13:43;;;;;;;4.10;3.70;;;;;;;26.53;38.41;98939.28;5078041;28;41025;-78
2024/03/14 10:16:10;;;;;;;3.57;3.27;;;;;;;26.29;38.23;98935.09;5104238;27;41587;-77
2024/03/14 10:18:46;;;;;;;4.70;2.97;;;;;;;26.72;38.09;98935.88;5097885;27;43950;-79
2024/03/14 10:21:13;;;;;;;3.87;2.50;;;;;;;27.99;36.91;98930.13;5081850;27;42145;-77
2024/03/14 10:23:41;;;;;;;2.55;2.35;;;;;;;29.40;34.60;98954.31;5116030;27;40842;-80
2024/03/14 10:26:09;;;;;;;2.65;2.45;;;;;;;30.49;32.45;98950.63;5098555;27;41789;-76
2024/03/14 10:28:39;;;;;;;4.45;3.10;;;;;;;30.55;31.78;98966.16;5098822;27;43660;-79
2024/03/14 10:31:08;;;;;;;3.13;2.58;;;;;;;29.69;32.54;98954.84;5081575;27;42834;-78
2024/03/14 10:33:37;;;;;;;2.83;2.35;;;;;;;29.47;32.65;98955.13;5081992;27;39452;-78
2024/03/14 10:36:06;;;;;;;2.30;1.88;;;;;;;31.39;31.83;98957.47;5110727;27;41811;-77
2024/03/14 10:38:36;;;;;;;3.92;2.45;;;;;;;33.24;28.79;98971.31;5092363;27;42756;-77
2024/03/14 10:41:05;;;;;;;2.40;1.60;;;;;;;34.62;27.22;98975.84;5083177;28;41806;-77
2024/03/14 10:43:40;;;;;;;1.83;1.73;;;;;;;35.59;25.46;98990.06;5080072;28;39014;-79
2024/03/14 10:46:10;;;;;;;1.88;1.75;;;;;;;35.82;25.25;98989.88;5094725;28;42075;-78
2024/03/14 10:48:39;;;;;;;1.80;1.70;;;;;;;35.63;25.33;98969.16;5078408;28;43818;-78
2024/03/14 10:51:06;;;;;;;2.50;1.50;;;;;;;34.87;25.11;98976.25;5060345;28;42579;-77
2024/03/14 10:53:34;;;;;;;1.60;1.50;;;;;;;33.14;27.41;98961.72;5078228;28;41017;-77
2024/03/14 10:56:02;;;;;;;1.85;1.73;;;;;;;31.78;28.32;98950.69;5077816;28;41757;-79
2024/03/14 10:58:30;;;;;;;2.50;1.83;;;;;;;30.72;29.24;98929.03;5095994;27;42686;-76
2024/03/14 11:00:57;;;;;;;2.00;1.90;;;;;;;30.48;29.98;98938.03;5080042;27;41660;-77
2024/03/14 11:03:25;;;;;;;2.17;1.98;;;;;;;31.24;29.12;98943.31;5098341;27;40324;-77
2024/03/14 11:05:52;;;;;;;2.13;1.92;;;;;;;31.60;29.55;98934.25;5094214;27;42095;-77
2024/03/14 11:08:20;;;;;;;2.03;1.67;;;;;;;31.90;28.77;98920.63;5089340;28;42050;-79
2024/03/14 11:10:48;;;;;;;3.05;2.00;;;;;;;33.00;27.91;98932.84;5077433;28;43090;-78
2024/03/14 11:13:15;;;;;;;2.05;1.52;;;;;;;33.94;26.41;98950.06;5077359;28;39081;-78
2024/03/14 11:15:43;;;;;;;1.70;1.60;;;;;;;34.78;24.83;98953.84;5109216;27;40966;-77
2024/03/14 11:18:13;;;;;;;1.92;1.80;;;;;;;35.44;24.41;98960.38;5097966;27;42659;-77
2024/03/14 11:20:41;;;;;;;1.40;1.27;;;;;;;34.89;24.40;98930.06;5111505;27;43318;-77
2024/03/14 11:23:10;;;;;;;3.40;1.40;;;;;;;35.02;24.47;98929.72;5077356;28;39988;-79
2024/03/14 11:25:38;;;;;;;1.38;1.20;;;;;;;36.30;24.42;98949.63;5076894;28;41773;-79
2024/03/14 11:28:05;;;;;;;1.40;1.20;;;;;;;37.85;22.62;98935.56;5094314;28;43974;-79
2024/03/14 11:30:33;;;;;;;1.60;1.20;;;;;;;38.46;22.16;98942.09;5096492;27;42279;-78
2024/03/14 11:33:07;;;;;;;1.52;1.42;;;;;;;38.72;21.12;98954.91;5085818;28;38810;-78
2024/03/14 11:35:43;;;;;;;1.00;1.00;;;;;;;38.65;21.70;98946.03;5075841;28;42799;-78
2024/03/14 11:38:24;;;;;;;0.85;0.85;;;;;;;38.50;21.44;98948.75;5079230;28;42193;-78
2024/03/14 11:40:55;;;;;;;1.60;1.50;;;;;;;38.14;21.08;98939.56;5059901;28;41098;-77
2024/03/14 11:43:23;;;;;;;1.75;1.65;;;;;;;37.65;21.77;98930.81;5076908;28;39657;-77
2024/03/14 11:45:58;;;;;;;1.20;1.10;;;;;;;37.24;22.76;98914.00;5077011;28;42047;-78
2024/03/14 11:48:24;;;;;;;1.50;1.40;;;;;;;36.41;22.89;98907.25;5077153;28;43024;-77
2024/03/14 11:50:53;;;;;;;1.52;1.30;;;;;;;35.91;24.17;98908.38;5092991;28;43118;-77
2024/03/14 11:57:16;;;;;;;1.20;1.20;;;;;;;36.15;23.15;98895.13;5108800;27;41727;-78
2024/03/14 11:59:45;;;;;;;1.30;1.20;;;;;;;36.66;23.36;98890.91;5059875;28;41439;-77
2024/03/14 12:02:14;;;;;;;1.30;1.20;;;;;;;37.17;22.72;98888.56;5060470;28;43025;-78
2024/03/14 12:04:42;;;;;;;1.75;1.65;;;;;;;37.13;21.15;98903.94;5113240;27;38501;-77
2024/03/14 12:07:10;;;;;;;1.85;1.67;;;;;;;35.96;22.77;98880.88;5093819;27;42706;-77
2024/03/14 12:09:37;;;;;;;2.50;1.65;;;;;;;35.78;23.70;98875.69;5110822;27;42632;-77
2024/03/14 12:12:05;;;;;;;1.40;1.30;;;;;;;35.76;22.90;98863.25;5093135;27;42352;-77
2024/03/14 12:14:33;;;;;;;1.00;0.88;;;;;;;36.15;22.79;98866.69;5108689;27;40058;-78
2024/03/14 12:17:01;;;;;;;1.13;1.02;;;;;;;36.32;21.94;98867.47;5095169;27;41607;-77
2024/03/14 12:19:29;;;;;;;1.38;1.00;;;;;;;36.44;22.60;98854.31;5112398;27;42381;-76
2024/03/14 12:22:00;;;;;;;2.60;1.35;;;;;;;36.62;22.28;98861.34;5095424;27;41983;-77
2024/03/14 12:24:28;;;;;;;1.30;1.20;;;;;;;36.67;22.30;98856.69;5094265;27;39901;-76
2024/03/14 12:26:57;;;;;;;1.20;1.10;;;;;;;36.86;23.10;98839.72;5080222;27;42188;-77
2024/03/14 12:29:24;;;;;;;1.00;0.90;;;;;;;37.72;21.78;98854.81;5079038;27;41898;-77
2024/03/14 12:31:52;;;;;;;1.27;1.17;;;;;;;38.20;20.90;98857.44;5078642;27;41433;-78
2024/03/14 12:34:20;;;;;;;1.52;1.20;;;;;;;38.24;20.64;98823.41;5078311;27;39434;-79
2024/03/14 12:36:47;;;;;;;0.80;0.80;;;;;;;38.78;20.53;98845.81;5096442;27;41822;-77
2024/03/14 12:39:15;;;;;;;1.27;0.95;;;;;;;38.17;20.59;98849.69;5098760;27;42758;-77
2024/03/14 12:41:51;;;;;;;0.80;0.80;;;;;;;38.03;20.42;98855.72;5100863;27;42412;-77
2024/03/14 12:44:19;;;;;;;1.33;1.10;;;;;;;37.72;21.23;98843.75;5099722;27;41031;-77
2024/03/14 12:46:47;;;;;;;2.70;1.00;;;;;;;38.08;21.26;98841.13;5099841;27;42848;-77
2024/03/14 12:49:15;;;;;;;1.33;1.08;;;;;;;38.20;20.36;98843.59;5116417;27;43654;-78
2024/03/14 12:51:43;;;;;;;0.98;0.98;;;;;;;37.97;20.44;98834.69;5082987;27;41121;-78
2024/03/14 12:54:11;;;;;;;1.35;1.20;;;;;;;37.77;20.39;98834.66;5082636;27;40365;-77
2024/03/14 12:56:39;;;;;;;1.15;0.93;;;;;;;37.24;20.89;98831.13;5082898;27;43402;-78
2024/03/14 12:59:08;;;;;;;1.90;1.30;;;;;;;36.73;20.79;98818.09;5099297;27;43571;-77
2024/03/14 13:01:37;;;;;;;0.85;0.85;;;;;;;36.43;21.46;98818.72;5082359;27;41449;-77
2024/03/14 13:04:06;;;;;;;1.10;1.08;;;;;;;36.30;21.34;98815.31;5082833;27;39223;-77
2024/03/14 13:06:34;;;;;;;0.70;0.70;;;;;;;35.95;21.53;98791.00;5100025;27;42473;-77
2024/03/14 13:09:14;;;;;;;0.88;0.77;;;;;;;35.58;20.61;98801.06;5082212;27;42418;-77
2024/03/14 13:11:43;;;;;;;0.70;0.70;;;;;;;35.01;21.07;98806.94;5114054;27;43187;-77
2024/03/14 13:14:11;;;;;;;1.08;0.98;;;;;;;34.44;22.07;98798.94;5116395;27;40388;-77
2024/03/14 13:16:39;;;;;;;1.00;0.90;;;;;;;33.99;22.55;98795.41;5116492;27;42513;-77
2024/03/14 13:19:09;;;;;;;0.73;0.73;;;;;;;33.72;22.65;98789.69;5116085;27;43747;-77
2024/03/14 13:21:43;;;;;;;1.67;0.90;;;;;;;33.18;23.08;98776.25;5099264;27;43177;-77
2024/03/14 13:24:13;;;;;;;1.00;0.90;;;;;;;32.70;23.77;98762.03;5112933;27;40393;-77
2024/03/14 13:26:40;;;;;;;0.80;0.80;;;;;;;32.48;24.74;98748.94;5099367;27;42245;-78
2024/03/14 13:29:10;;;;;;;1.27;1.17;;;;;;;32.25;24.53;98768.13;5081617;27;43094;-77
2024/03/14 13:31:37;;;;;;;1.20;0.90;;;;;;;31.78;24.55;98759.81;5082564;27;43828;-77
2024/03/14 13:34:06;;;;;;;1.15;0.80;;;;;;;31.36;25.31;98750.72;5098750;27;38856;-78
2024/03/14 13:36:36;;;;;;;1.10;1.10;;;;;;;31.10;25.29;98748.34;5115920;27;42000;-77
2024/03/14 13:39:12;;;;;;;0.93;0.93;;;;;;;30.89;25.82;98737.88;5113474;27;42494;-77
2024/03/14 13:41:41;;;;;;;1.37;1.27;;;;;;;31.00;25.63;98750.78;5083106;27;41110;-77
2024/03/14 13:44:10;;;;;;;1.27;1.00;;;;;;;31.22;25.28;98748.41;5082706;27;39773;-77
2024/03/14 13:46:41;;;;;;;1.25;1.15;;;;;;;31.29;25.34;98740.91;5098713;27;42460;-77
2024/03/14 13:49:11;;;;;;;0.97;0.87;;;;;;;31.48;25.94;98737.09;5099716;27;44479;-76
2024/03/14 13:51:39;;;;;;;1.20;1.10;;;;;;;32.00;25.06;98740.09;5082065;27;41017;-77
2024/03/14 13:54:06;;;;;;;0.90;0.90;;;;;;;32.87;25.08;98727.34;5098584;27;38729;-77
2024/03/14 13:56:34;;;;;;;1.50;1.17;;;;;;;33.04;23.42;98733.69;5115412;27;42929;-77
2024/03/14 13:59:02;;;;;;;0.90;0.90;;;;;;;32.31;24.04;98734.28;5098213;27;43115;-76
2024/03/14 14:01:32;;;;;;;0.80;0.80;;;;;;;31.70;25.13;98715.50;5097806;27;41175;-77
2024/03/14 14:04:02;;;;;;;1.40;1.30;;;;;;;31.40;25.65;98718.25;5116085;27;39560;-77
2024/03/14 14:06:30;;;;;;;1.13;0.90;;;;;;;31.21;25.77;98714.72;5082114;27;41663;-77
2024/03/14 14:08:58;;;;;;;0.80;0.80;;;;;;;31.10;26.47;98706.47;5115170;27;43291;-77
2024/03/14 14:11:27;;;;;;;1.40;1.10;;;;;;;30.76;26.39;98684.16;5098167;27;43274;-76
2024/03/14 14:14:02;;;;;;;0.90;0.90;;;;;;;30.54;27.09;98685.72;5113218;27;40274;-77
2024/03/14 14:16:29;;;;;;;0.80;0.80;;;;;;;30.28;27.13;98693.09;5098184;27;40980;-77
2024/03/14 14:18:57;;;;;;;1.03;1.00;;;;;;;30.01;27.46;98683.50;5115330;27;43840;-77
2024/03/14 14:21:27;;;;;;;0.80;0.80;;;;;;;29.99;28.04;98678.25;5097997;27;42282;-77
2024/03/14 14:23:55;;;;;;;1.20;1.10;;;;;;;31.20;27.02;98685.69;5099010;27;39911;-76
2024/03/14 14:26:23;;;;;;;0.80;0.80;;;;;;;32.59;25.38;98688.84;5115102;27;41728;-77
2024/03/14 14:28:50;;;;;;;1.07;1.00;;;;;;;33.16;24.37;98687.00;5115203;27;43898;-76
2024/03/14 14:31:18;;;;;;;0.90;0.90;;;;;;;33.38;23.94;98685.25;5080747;27;42461;-76
2024/03/14 14:33:47;;;;;;;2.53;0.73;;;;;;;33.53;23.96;98687.44;5098237;27;38831;-76
2024/03/14 14:36:14;;;;;;;1.17;0.90;;;;;;;33.57;23.08;98690.53;5080866;27;40770;-76
2024/03/14 14:38:43;;;;;;;1.10;1.00;;;;;;;33.25;23.22;98685.56;5097663;27;44242;-76
2024/03/14 14:41:11;;;;;;;3.42;1.20;;;;;;;32.84;23.60;98689.41;5097578;27;41489;-76
2024/03/14 14:43:39;;;;;;;1.40;1.30;;;;;;;32.24;24.12;98686.16;5114775;27;41291;-76
2024/03/14 14:46:07;;;;;;;1.37;0.90;;;;;;;31.45;25.09;98666.38;5080243;27;41137;-76
2024/03/14 14:48:35;;;;;;;1.30;1.20;;;;;;;30.81;25.51;98662.41;5080833;27;41344;-76
2024/03/14 14:51:04;;;;;;;0.90;0.90;;;;;;;30.05;25.95;98659.28;5080709;27;41149;-76
2024/03/14 14:53:32;;;;;;;0.90;0.90;;;;;;;29.32;26.97;98648.94;5097079;27;40196;-78
2024/03/14 14:56:13;;;;;;;1.13;1.00;;;;;;;28.66;27.63;98635.69;5097338;27;42307;-75
2024/03/14 14:58:42;;;;;;;0.80;0.80;;;;;;;28.21;28.26;98630.19;5099463;27;41747;-76
2024/03/14 15:01:13;;;;;;;0.80;0.80;;;;;;;27.70;28.88;98623.78;5096322;27;42580;-75
2024/03/14 15:03:42;;;;;;;0.80;0.80;;;;;;;27.26;29.27;98625.22;5111638;27;40046;-76
2024/03/14 15:06:10;;;;;;;1.30;1.00;;;;;;;26.70;30.06;98630.97;5080718;27;40299;-75
2024/03/14 15:08:38;;;;;;;1.40;1.30;;;;;;;26.09;30.69;98611.00;5097500;27;44061;-75
2024/03/14 15:11:06;;;;;;;1.10;0.93;;;;;;;25.58;31.83;98614.00;5098061;27;42763;-76
2024/03/14 15:13:33;;;;;;;1.00;0.90;;;;;;;25.25;32.45;98597.47;5114272;27;40096;-76
2024/03/14 15:16:06;;;;;;;0.70;0.70;;;;;;;24.91;32.93;98598.16;5079935;27;42312;-76
2024/03/14 15:18:36;;;;;;;1.10;1.00;;;;;;;24.65;33.40;98590.59;5111911;27;42663;-76
2024/03/14 15:21:04;;;;;;;1.17;1.00;;;;;;;24.34;33.63;98571.94;5097404;27;43365;-75
2024/03/14 15:23:31;;;;;;;1.43;1.10;;;;;;;24.21;34.39;98581.72;5096881;27;40028;-76
2024/03/14 15:25:59;;;;;;;1.27;1.17;;;;;;;24.02;34.78;98576.88;5096976;27;42697;-77
2024/03/14 15:28:27;;;;;;;1.30;1.20;;;;;;;23.82;34.57;98571.22;5080144;27;42062;-76
2024/03/14 15:30:55;;;;;;;1.23;1.13;;;;;;;23.64;35.07;98574.28;5079807;27;42656;-76
2024/03/14 15:33:22;;;;;;;1.10;1.00;;;;;;;23.53;35.09;98566.63;5097301;27;39152;-76
2024/03/14 15:35:50;;;;;;;1.40;1.20;;;;;;;23.45;35.46;98569.41;5113798;27;42245;-76
2024/03/14 15:38:21;;;;;;;1.30;1.03;;;;;;;23.31;35.72;98562.09;5097659;27;42999;-77
2024/03/14 15:40:48;;;;;;;1.07;1.00;;;;;;;23.21;36.05;98565.06;5079902;27;42539;-77
2024/03/14 15:43:16;;;;;;;1.43;1.30;;;;;;;23.03;36.33;98557.28;5080060;27;40173;-77
2024/03/14 15:45:44;;;;;;;1.23;1.00;;;;;;;22.88;36.96;98545.59;5113829;27;42910;-76
2024/03/14 15:48:12;;;;;;;1.40;1.20;;;;;;;22.76;37.13;98541.63;5113869;27;42801;-76
2024/03/14 15:50:40;;;;;;;1.30;1.20;;;;;;;22.64;37.58;98548.44;5113159;27;42505;-76
2024/03/14 15:53:10;;;;;;;3.40;1.40;;;;;;;22.44;37.88;98542.69;5096965;27;40009;-75
2024/03/14 15:55:38;;;;;;;1.37;1.10;;;;;;;22.21;38.27;98538.13;5114043;27;41987;-76
2024/03/14 15:58:06;;;;;;;0.83;0.83;;;;;;;22.15;37.98;98528.03;5096904;27;42655;-76
2024/03/14 16:00:34;;;;;;;0.97;0.90;;;;;;;22.14;38.58;98536.28;5095528;27;42091;-75
2024/03/14 16:03:01;;;;;;;1.13;1.03;;;;;;;22.00;38.49;98518.19;5096804;27;40731;-76
2024/03/14 16:05:30;;;;;;;1.83;1.70;;;;;;;21.98;38.77;98530.97;5096107;27;42194;-75
2024/03/14 16:07:58;;;;;;;1.23;0.97;;;;;;;21.86;39.10;98523.25;5097022;27;41740;-75
2024/03/14 16:10:25;;;;;;;1.70;1.60;;;;;;;21.68;39.48;98509.19;5096293;27;43290;-75
2024/03/14 16:12:53;;;;;;;2.00;1.40;;;;;;;21.66;39.78;98519.28;5082553;27;40185;-75
2024/03/14 16:15:21;;;;;;;1.37;1.27;;;;;;;21.59;40.04;98518.31;5083046;27;41277;-76
2024/03/14 16:17:49;;;;;;;1.60;1.20;;;;;;;21.55;40.23;98516.97;5100402;27;43262;-76
2024/03/14 16:20:26;;;;;;;0.83;0.83;;;;;;;21.46;40.46;98510.78;5116932;27;43191;-76
2024/03/14 16:22:54;;;;;;;1.67;1.30;;;;;;;21.36;40.19;98503.91;5085894;27;39392;-75
2024/03/14 16:25:22;;;;;;;1.23;1.07;;;;;;;21.30;40.58;98509.97;5099521;27;42005;-75
2024/03/14 16:27:51;;;;;;;1.47;1.10;;;;;;;21.19;40.72;98502.25;5100100;27;41838;-75
2024/03/14 16:30:19;;;;;;;3.13;1.30;;;;;;;21.09;40.85;98502.41;5099555;27;42140;-76
2024/03/14 16:32:47;;;;;;;1.90;1.30;;;;;;;21.01;40.89;98500.59;5100256;27;39006;-75
2024/03/14 16:35:28;;;;;;;1.07;1.00;;;;;;;20.90;41.14;98495.53;5100133;27;42269;-75
2024/03/14 16:37:59;;;;;;;2.57;1.40;;;;;;;20.72;41.39;98484.97;5115615;27;43461;-76
2024/03/14 16:40:26;;;;;;;1.30;1.20;;;;;;;20.67;41.68;98491.84;5099514;27;41081;-76
2024/03/14 16:42:54;;;;;;;1.33;1.00;;;;;;;20.54;41.66;98488.81;5099315;27;40532;-75
2024/03/14 16:45:22;;;;;;;1.70;1.60;;;;;;;20.43;41.88;98495.38;5099103;27;40604;-76
2024/03/14 16:47:50;;;;;;;0.83;0.80;;;;;;;20.33;41.83;98492.81;5099996;27;42752;-75
2024/03/14 16:50:18;;;;;;;1.47;1.37;;;;;;;20.23;41.92;98484.06;5081890;27;41800;-75
2024/03/14 16:52:47;;;;;;;2.40;1.40;;;;;;;20.11;41.96;98493.47;5116806;27;39986;-75
2024/03/14 16:55:15;;;;;;;1.03;0.80;;;;;;;19.96;42.43;98473.59;5082548;27;41837;-75
2024/03/14 16:57:43;;;;;;;0.80;0.80;;;;;;;19.89;42.76;98469.88;5099895;27;42934;-75
2024/03/14 17:00:18;;;;;;;2.63;1.40;;;;;;;19.77;43.44;98463.13;5115772;27;42142;-76
2024/03/14 17:02:48;;;;;;;0.93;0.93;;;;;;;19.74;43.22;98477.72;5085470;27;38806;-76
2024/03/14 17:05:19;;;;;;;1.30;1.10;;;;;;;19.63;43.82;98475.34;5082694;27;40919;-75
2024/03/14 17:07:47;;;;;;;1.97;1.30;;;;;;;19.51;43.90;98465.91;5097546;27;42847;-75
2024/03/14 17:10:16;;;;;;;1.67;1.50;;;;;;;19.36;44.22;98462.94;5098449;27;42239;-76
2024/03/14 17:12:43;;;;;;;1.40;1.20;;;;;;;19.24;44.94;98461.53;5099968;27;39829;-76
2024/03/14 17:15:11;;;;;;;1.73;1.10;;;;;;;19.11;44.76;98455.75;5116110;27;41542;-76
2024/03/14 17:17:39;;;;;;;1.87;1.33;;;;;;;18.98;44.82;98459.72;5116237;27;43745;-75
2024/03/14 17:20:12;;;;;;;1.63;1.20;;;;;;;18.86;45.00;98460.13;5099081;27;42372;-76
2024/03/14 17:22:41;;;;;;;1.40;1.30;;;;;;;18.69;45.12;98458.34;5097453;27;39846;-75
2024/03/14 17:25:10;;;;;;;2.00;1.23;;;;;;;18.58;45.23;98451.38;5099180;27;40546;-76
2024/03/14 17:27:39;;;;;;;1.47;1.17;;;;;;;18.44;45.53;98462.63;5082907;27;42932;-76
2024/03/14 17:30:08;;;;;;;1.63;0.90;;;;;;;18.22;46.16;98451.41;5082622;27;42419;-76
2024/03/14 17:32:36;;;;;;;1.83;1.00;;;;;;;18.17;46.33;98459.06;5099924;27;39521;-75
2024/03/14 17:35:04;;;;;;;1.10;1.00;;;;;;;18.05;46.53;98454.09;5099823;27;41805;-75
2024/03/14 17:37:33;;;;;;;1.43;1.10;;;;;;;17.82;47.11;98427.72;5083335;27;42019;-75
2024/03/14 17:40:00;;;;;;;1.00;0.90;;;;;;;17.80;47.43;98456.50;5116166;27;43184;-75
2024/03/14 17:42:28;;;;;;;1.27;1.17;;;;;;;17.68;47.96;98448.84;5082891;27;39168;-75
2024/03/14 17:44:57;;;;;;;2.23;1.13;;;;;;;17.51;47.87;98445.94;5082509;27;41346;-76
2024/03/14 17:47:27;;;;;;;3.00;1.10;;;;;;;17.46;47.91;98453.56;5082998;27;42019;-75
2024/03/14 17:49:54;;;;;;;1.87;1.40;;;;;;;17.36;48.53;98449.25;5082465;27;42354;-76
2024/03/14 17:52:22;;;;;;;2.07;1.30;;;;;;;17.24;49.08;98444.09;5082704;27;38864;-76
2024/03/14 17:54:50;;;;;;;1.17;1.07;;;;;;;17.14;49.10;98448.66;5082120;27;42149;-76
2024/03/14 17:57:19;;;;;;;1.40;1.30;;;;;;;17.04;49.54;98439.00;5116013;27;42814;-75
2024/03/14 17:59:47;;;;;;;1.73;1.43;;;;;;;16.91;50.26;98435.78;5114972;27;42320;-75
2024/03/14 18:02:14;;;;;;;2.53;1.87;;;;;;;16.81;50.79;98439.31;5082157;27;39723;-75
2024/03/14 18:04:42;;;;;;;2.43;2.17;;;;;;;16.65;50.94;98431.06;5099217;27;41733;-75
2024/03/14 18:07:10;;;;;;;3.30;2.30;;;;;;;16.65;50.69;98457.81;5099141;27;42223;-76
2024/03/14 18:09:38;;;;;;;4.00;2.77;;;;;;;16.51;51.16;98444.84;5098710;27;42287;-76
2024/03/14 18:12:06;;;;;;;4.33;2.80;;;;;;;16.47;51.47;98451.47;5099280;27;39659;-75
2024/03/14 18:14:35;;;;;;;5.37;3.47;;;;;;;16.37;52.85;98437.28;5115690;27;42468;-76
2024/03/14 18:17:03;;;;;;;4.57;3.37;;;;;;;16.27;52.38;98425.75;5099246;27;43852;-76
2024/03/14 18:19:31;;;;;;;4.30;3.27;;;;;;;16.21;53.37;98432.50;5098135;27;44000;-76
2024/03/14 18:21:58;;;;;;;4.70;3.10;;;;;;;16.15;53.91;98428.56;5082107;27;39116;-76
2024/03/14 18:24:29;;;;;;;3.00;2.60;;;;;;;16.08;54.07;98438.13;5115179;27;41600;-76
2024/03/14 18:26:56;;;;;;;3.03;2.73;;;;;;;16.03;53.82;98434.19;5082562;27;41807;-76
2024/03/14 18:29:24;;;;;;;3.73;3.03;;;;;;;15.97;53.55;98440.09;5081279;27;41535;-76